Time,TemperatureF,DewpointF,PressureIn,WindDirection,WindDirectionDegrees,WindSpeedMPH,WindSpeedGustMPH,Humidity,HourlyPrecipIn,Conditions,Clouds,dailyrainin,SoftwareType,DateUTC
2013-01-13 00:07:00,43.2,42.9,30.18,North,360,0.0,0.0,99,0.00,,,0.00,VWS V14.01,2013-01-13 05:07:00,
2013-01-13 00:13:00,43.0,43.0,30.17,North,360,0.0,0.0,100,0.00,,,0.00,VWS V14.01,2013-01-13 05:13:00,
2013-01-13 00:18:00,43.0,43.0,30.17,North,360,0.0,0.0,100,0.00,,,0.00,VWS V14.01,2013-01-13 05:18:00,
2013-01-13 00:23:00,43.0,43.0,30.16,North,360,0.0,0.0,100,0.00,,,0.00,VWS V14.01,2013-01-13 05:23:00,
2013-01-13 00:28:00,43.0,43.0,30.16,North,360,0.0,0.0,100,0.00,,,0.00,VWS V14.01,2013-01-13 05:28:00,
2013-01-13 00:33:00,42.9,42.9,30.16,North,360,0.0,0.0,100,0.00,,,0.00,VWS V14.01,2013-01-13 05:33:00,
2013-01-13 00:38:00,42.7,42.7,30.15,North,360,0.0,0.0,100,0.00,,,0.00,VWS V14.01,2013-01-13 05:38:00,
2013-01-13 00:43:00,42.7,42.7,30.16,North,360,0.0,0.0,100,0.00,,,0.00,VWS V14.01,2013-01-13 05:43:00,
2013-01-13 00:53:00,42.7,42.7,30.15,North,360,0.0,0.0,100,0.00,,,0.00,VWS V14.01,2013-01-13 05:53:00,
2013-01-13 00:58:00,42.7,42.7,30.15,North,360,0.0,0.0,100,0.00,,,0.00,VWS V14.01,2013-01-13 05:58:00,
2013-01-13 01:07:00,42.8,42.8,30.16,North,360,0.0,0.0,100,0.00,,,0.00,VWS V14.01,2013-01-13 06:07:00,
2013-01-13 01:13:00,42.8,42.8,30.16,North,360,0.0,0.0,100,0.00,,,0.00,VWS V14.01,2013-01-13 06:13:00,
2013-01-13 01:23:00,42.8,42.8,30.15,North,360,0.0,0.0,100,0.00,,,0.00,VWS V14.01,2013-01-13 06:23:00,
2013-01-13 01:28:00,42.9,42.9,30.14,North,360,0.0,0.0,100,0.00,,,0.00,VWS V14.01,2013-01-13 06:28:00,
2013-01-13 01:33:00,43.0,43.0,30.15,North,360,0.0,0.0,100,0.00,,,0.00,VWS V14.01,2013-01-13 06:33:00,
2013-01-13 01:38:00,42.9,42.9,30.15,North,360,0.0,0.0,100,0.00,,,0.00,VWS V14.01,2013-01-13 06:38:00,
2013-01-13 01:43:00,43.0,43.0,30.15,North,360,0.0,0.0,100,0.00,,,0.00,VWS V14.01,2013-01-13 06:43:00,
2013-01-13 01:53:00,42.6,42.6,30.15,North,360,0.0,0.0,100,0.00,,,0.00,VWS V14.01,2013-01-13 06:53:00,
2013-01-13 01:58:00,42.4,42.4,30.15,North,360,0.0,0.0,100,0.00,,,0.00,VWS V14.01,2013-01-13 06:58:00,
2013-01-13 02:07:00,42.3,42.3,30.15,North,360,0.0,0.0,100,0.00,,,0.00,VWS V14.01,2013-01-13 07:07:00,
2013-01-13 02:13:00,42.3,42.3,30.15,North,360,0.0,0.0,100,0.00,,,0.00,VWS V14.01,2013-01-13 07:13:00,
2013-01-13 02:23:00,42.5,42.5,30.15,North,360,0.0,0.0,100,0.00,,,0.00,VWS V14.01,2013-01-13 07:23:00,
2013-01-13 02:28:00,42.5,42.5,30.15,North,360,0.0,0.0,100,0.00,,,0.00,VWS V14.01,2013-01-13 07:28:00,
2013-01-13 02:33:00,42.6,42.6,30.15,North,360,0.0,0.0,100,0.00,,,0.00,VWS V14.01,2013-01-13 07:33:00,
2013-01-13 02:43:00,42.5,42.5,30.15,North,360,0.0,0.0,100,0.00,,,0.00,VWS V14.01,2013-01-13 07:43:00,
2013-01-13 02:48:00,42.4,42.4,30.14,North,360,0.0,0.0,100,0.00,,,0.00,VWS V14.01,2013-01-13 07:48:00,
2013-01-13 02:53:00,42.2,42.2,30.14,North,360,0.0,0.0,100,0.00,,,0.00,VWS V14.01,2013-01-13 07:53:00,
2013-01-13 02:58:00,42.2,42.2,30.14,North,360,0.0,0.0,100,0.00,,,0.00,VWS V14.01,2013-01-13 07:58:00,
2013-01-13 03:07:00,42.2,42.2,30.15,North,360,0.0,0.0,100,0.00,,,0.00,VWS V14.01,2013-01-13 08:07:00,
2013-01-13 03:13:00,42.3,42.3,30.14,North,360,0.0,0.0,100,0.00,,,0.00,VWS V14.01,2013-01-13 08:13:00,
2013-01-13 03:18:00,42.4,42.4,30.14,North,360,0.0,0.0,100,0.00,,,0.00,VWS V14.01,2013-01-13 08:18:00,
2013-01-13 03:28:00,42.4,42.4,30.13,North,360,0.0,0.0,100,0.00,,,0.00,VWS V14.01,2013-01-13 08:28:00,
2013-01-13 03:38:00,42.5,42.5,30.12,North,360,0.0,0.0,100,0.00,,,0.00,VWS V14.01,2013-01-13 08:38:00,
2013-01-13 03:43:00,42.6,42.6,30.11,North,360,0.0,0.0,100,0.00,,,0.00,VWS V14.01,2013-01-13 08:43:00,
2013-01-13 03:48:00,42.7,42.7,30.11,North,360,0.0,0.0,100,0.00,,,0.00,VWS V14.01,2013-01-13 08:48:00,
2013-01-13 03:53:00,42.7,42.7,30.11,North,360,0.0,0.0,100,0.00,,,0.00,VWS V14.01,2013-01-13 08:53:00,
2013-01-13 03:58:00,42.8,42.8,30.11,North,360,0.0,0.0,100,0.00,,,0.00,VWS V14.01,2013-01-13 08:58:00,
2013-01-13 04:07:00,42.9,42.9,30.12,North,360,0.0,0.0,100,0.00,,,0.00,VWS V14.01,2013-01-13 09:07:00,
2013-01-13 04:13:00,43.0,43.0,30.14,North,360,0.0,0.0,100,0.00,,,0.00,VWS V14.01,2013-01-13 09:13:00,
2013-01-13 04:18:00,43.0,43.0,30.14,North,360,0.0,0.0,100,0.00,,,0.00,VWS V14.01,2013-01-13 09:18:00,
2013-01-13 04:23:00,43.1,43.1,30.12,North,360,0.0,0.0,100,0.00,,,0.00,VWS V14.01,2013-01-13 09:23:00,
2013-01-13 04:33:00,43.1,43.1,30.12,North,360,0.0,0.0,100,0.00,,,0.00,VWS V14.01,2013-01-13 09:33:00,
2013-01-13 04:38:00,43.1,43.1,30.11,North,360,0.0,0.0,100,0.00,,,0.00,VWS V14.01,2013-01-13 09:38:00,
2013-01-13 04:43:00,43.1,43.1,30.11,North,360,0.0,0.0,100,0.00,,,0.00,VWS V14.01,2013-01-13 09:43:00,
2013-01-13 04:48:00,43.1,43.1,30.11,North,360,0.0,0.0,100,0.00,,,0.00,VWS V14.01,2013-01-13 09:48:00,
2013-01-13 04:53:00,42.8,42.8,30.11,North,360,0.0,0.0,100,0.00,,,0.00,VWS V14.01,2013-01-13 09:53:00,
2013-01-13 04:58:00,42.7,42.7,30.10,North,360,0.0,0.0,100,0.00,,,0.00,VWS V14.01,2013-01-13 09:58:00,
2013-01-13 05:07:00,42.8,42.8,30.09,North,360,0.0,0.0,100,0.00,,,0.00,VWS V14.01,2013-01-13 10:07:00,
2013-01-13 05:13:00,42.7,42.7,30.10,North,360,0.0,0.0,100,0.00,,,0.00,VWS V14.01,2013-01-13 10:13:00,
2013-01-13 05:23:00,43.1,43.1,30.10,North,360,0.0,0.0,100,0.00,,,0.00,VWS V14.01,2013-01-13 10:23:00,
2013-01-13 05:28:00,43.1,43.1,30.10,North,360,0.0,0.0,100,0.00,,,0.00,VWS V14.01,2013-01-13 10:28:00,
2013-01-13 05:38:00,43.2,43.2,30.10,North,360,0.0,0.0,100,0.00,,,0.00,VWS V14.01,2013-01-13 10:38:00,
2013-01-13 05:43:00,43.3,43.3,30.10,North,360,0.0,0.0,100,0.00,,,0.00,VWS V14.01,2013-01-13 10:43:00,
2013-01-13 05:48:00,43.3,43.3,30.11,North,360,0.0,0.0,100,0.00,,,0.00,VWS V14.01,2013-01-13 10:48:00,
2013-01-13 05:53:00,43.3,43.3,30.11,North,360,0.0,0.0,100,0.00,,,0.00,VWS V14.01,2013-01-13 10:53:00,
2013-01-13 05:58:00,43.4,43.4,30.10,North,360,0.0,0.0,100,0.00,,,0.00,VWS V14.01,2013-01-13 10:58:00,
2013-01-13 06:07:00,43.4,43.4,30.10,North,360,0.0,0.0,100,0.00,,,0.00,VWS V14.01,2013-01-13 11:07:00,
2013-01-13 06:13:00,43.4,43.4,30.11,North,360,0.0,0.0,100,0.00,,,0.00,VWS V14.01,2013-01-13 11:13:00,
2013-01-13 06:18:00,43.5,43.5,30.11,North,360,0.0,0.0,100,0.00,,,0.00,VWS V14.01,2013-01-13 11:18:00,
2013-01-13 06:23:00,43.6,43.6,30.11,North,360,0.0,0.0,100,0.00,,,0.00,VWS V14.01,2013-01-13 11:23:00,
2013-01-13 06:33:00,43.9,43.9,30.11,North,360,0.0,0.0,100,0.00,,,0.00,VWS V14.01,2013-01-13 11:33:00,
2013-01-13 06:38:00,44.0,44.0,30.11,North,360,0.0,0.0,100,0.00,,,0.00,VWS V14.01,2013-01-13 11:38:00,
2013-01-13 06:43:00,44.0,44.0,30.11,North,360,0.0,0.0,100,0.00,,,0.00,VWS V14.01,2013-01-13 11:43:00,
2013-01-13 06:48:00,44.1,44.1,30.11,North,360,0.0,0.0,100,0.00,,,0.00,VWS V14.01,2013-01-13 11:48:00,
2013-01-13 06:53:00,44.2,44.2,30.11,North,360,0.0,0.0,100,0.00,,,0.00,VWS V14.01,2013-01-13 11:53:00,
2013-01-13 06:58:00,44.2,44.2,30.11,North,360,0.0,0.0,100,0.00,,,0.00,VWS V14.01,2013-01-13 11:58:00,
2013-01-13 07:03:00,44.2,44.2,30.11,North,360,0.0,0.0,100,0.00,,,0.00,VWS V14.01,2013-01-13 12:03:00,
2013-01-13 07:08:00,44.1,44.1,30.11,North,360,0.0,0.0,100,0.00,,,0.00,VWS V14.01,2013-01-13 12:08:00,
2013-01-13 07:13:00,44.1,44.1,30.11,North,360,0.0,0.0,100,0.00,,,0.00,VWS V14.01,2013-01-13 12:13:00,
2013-01-13 07:18:00,44.1,44.1,30.11,North,360,0.0,0.0,100,0.00,,,0.00,VWS V14.01,2013-01-13 12:18:00,
2013-01-13 07:23:00,44.1,44.1,30.11,North,360,0.0,0.0,100,0.00,,,0.00,VWS V14.01,2013-01-13 12:23:00,
2013-01-13 07:33:00,44.2,44.2,30.12,North,360,0.0,0.0,100,0.00,,,0.00,VWS V14.01,2013-01-13 12:33:00,
2013-01-13 07:38:00,44.3,44.3,30.12,North,360,0.0,0.0,100,0.00,,,0.00,VWS V14.01,2013-01-13 12:38:00,
2013-01-13 07:48:00,44.7,44.7,30.12,North,360,0.0,0.0,100,0.00,,,0.00,VWS V14.01,2013-01-13 12:48:00,
2013-01-13 07:53:00,44.8,44.8,30.12,North,360,0.0,0.0,100,0.00,,,0.00,VWS V14.01,2013-01-13 12:53:00,
2013-01-13 08:07:00,45.0,45.0,30.12,North,360,0.0,0.0,100,0.00,,,0.00,VWS V14.01,2013-01-13 13:07:00,
2013-01-13 08:13:00,45.2,45.2,30.12,North,360,0.0,0.0,100,0.00,,,0.00,VWS V14.01,2013-01-13 13:13:00,
2013-01-13 08:18:00,45.2,45.2,30.12,North,360,0.0,0.0,100,0.00,,,0.00,VWS V14.01,2013-01-13 13:18:00,
2013-01-13 08:23:00,45.3,45.3,30.13,North,360,0.0,0.0,100,0.00,,,0.00,VWS V14.01,2013-01-13 13:23:00,
2013-01-13 08:28:00,45.3,45.3,30.13,North,360,0.0,0.0,100,0.00,,,0.00,VWS V14.01,2013-01-13 13:28:00,
2013-01-13 08:38:00,45.7,45.7,30.13,North,360,0.0,0.0,100,0.00,,,0.00,VWS V14.01,2013-01-13 13:38:00,
2013-01-13 08:43:00,45.7,45.7,30.13,North,360,0.0,0.0,100,0.00,,,0.00,VWS V14.01,2013-01-13 13:43:00,
2013-01-13 08:48:00,45.9,45.9,30.13,North,360,0.0,0.0,100,0.00,,,0.00,VWS V14.01,2013-01-13 13:48:00,
2013-01-13 08:53:00,45.9,45.9,30.13,North,360,0.0,0.0,100,0.00,,,0.00,VWS V14.01,2013-01-13 13:53:00,
2013-01-13 08:58:00,46.1,46.1,30.13,North,360,0.0,0.0,100,0.00,,,0.00,VWS V14.01,2013-01-13 13:58:00,
2013-01-13 09:07:00,46.1,46.1,30.12,North,360,0.0,0.0,100,0.00,,,0.00,VWS V14.01,2013-01-13 14:07:00,
2013-01-13 09:13:00,46.1,46.1,30.12,North,360,0.0,0.0,100,0.00,,,0.00,VWS V14.01,2013-01-13 14:13:00,
2013-01-13 09:23:00,46.3,46.3,30.12,North,360,0.0,0.0,100,0.00,,,0.00,VWS V14.01,2013-01-13 14:23:00,
2013-01-13 09:28:00,46.4,46.4,30.12,North,360,0.0,0.0,100,0.00,,,0.00,VWS V14.01,2013-01-13 14:28:00,
2013-01-13 09:33:00,46.7,46.7,30.12,North,360,0.0,0.0,100,0.00,,,0.00,VWS V14.01,2013-01-13 14:33:00,
2013-01-13 09:38:00,46.9,46.9,30.12,North,360,0.0,0.0,100,0.00,,,0.00,VWS V14.01,2013-01-13 14:38:00,
2013-01-13 09:48:00,47.3,47.3,30.12,North,360,0.0,0.0,100,0.00,,,0.00,VWS V14.01,2013-01-13 14:48:00,
2013-01-13 09:53:00,47.5,47.5,30.13,North,360,0.0,0.0,100,0.00,,,0.00,VWS V14.01,2013-01-13 14:53:00,
2013-01-13 09:58:00,47.7,47.7,30.13,North,360,0.0,0.0,100,0.00,,,0.00,VWS V14.01,2013-01-13 14:58:00,
2013-01-13 10:07:00,47.8,47.8,30.14,North,360,0.0,0.0,100,0.00,,,0.00,VWS V14.01,2013-01-13 15:07:00,
2013-01-13 10:13:00,48.3,48.3,30.15,North,360,0.0,0.0,100,0.00,,,0.00,VWS V14.01,2013-01-13 15:13:00,
2013-01-13 10:18:00,48.3,48.3,30.15,North,360,0.0,0.0,100,0.00,,,0.00,VWS V14.01,2013-01-13 15:18:00,
2013-01-13 10:23:00,48.3,48.3,30.15,North,360,0.0,0.0,100,0.00,,,0.00,VWS V14.01,2013-01-13 15:23:00,
2013-01-13 10:28:00,48.4,48.4,30.15,North,360,0.0,0.0,100,0.00,,,0.00,VWS V14.01,2013-01-13 15:28:00,
2013-01-13 10:33:00,48.5,48.5,30.15,North,360,0.0,0.0,100,0.00,,,0.00,VWS V14.01,2013-01-13 15:33:00,
2013-01-13 10:38:00,48.7,48.7,30.15,North,360,0.0,0.0,100,0.00,,,0.00,VWS V14.01,2013-01-13 15:38:00,
2013-01-13 10:43:00,48.9,48.9,30.15,North,360,0.0,0.0,100,0.00,,,0.00,VWS V14.01,2013-01-13 15:43:00,
2013-01-13 10:48:00,48.9,48.9,30.14,North,360,0.0,0.0,100,0.00,,,0.00,VWS V14.01,2013-01-13 15:48:00,
2013-01-13 10:53:00,48.8,48.8,30.14,North,360,0.0,0.0,100,0.00,,,0.00,VWS V14.01,2013-01-13 15:53:00,
2013-01-13 10:58:00,48.9,48.9,30.14,North,360,0.0,0.0,100,0.00,,,0.00,VWS V14.01,2013-01-13 15:58:00,
2013-01-13 11:07:00,49.0,49.0,30.13,North,360,0.0,0.0,100,0.00,,,0.00,VWS V14.01,2013-01-13 16:07:00,
2013-01-13 11:13:00,49.1,49.1,30.12,North,360,0.0,0.0,100,0.00,,,0.00,VWS V14.01,2013-01-13 16:13:00,
2013-01-13 11:18:00,49.1,49.1,30.11,North,360,0.0,0.0,100,0.00,,,0.00,VWS V14.01,2013-01-13 16:18:00,
2013-01-13 11:23:00,49.3,49.3,30.11,North,360,0.0,0.0,100,0.00,,,0.00,VWS V14.01,2013-01-13 16:23:00,
2013-01-13 11:28:00,49.3,49.3,30.10,North,360,0.0,0.0,100,0.00,,,0.00,VWS V14.01,2013-01-13 16:28:00,
2013-01-13 11:33:00,49.3,49.3,30.10,North,360,0.0,0.0,100,0.00,,,0.00,VWS V14.01,2013-01-13 16:33:00,
2013-01-13 11:38:00,49.5,49.5,30.09,North,360,0.0,0.0,100,0.00,,,0.00,VWS V14.01,2013-01-13 16:38:00,
2013-01-13 11:43:00,49.7,49.7,30.09,North,360,0.0,0.0,100,0.00,,,0.00,VWS V14.01,2013-01-13 16:43:00,
2013-01-13 11:53:00,50.2,50.2,30.09,North,360,0.0,0.0,100,0.00,,,0.00,VWS V14.01,2013-01-13 16:53:00,
2013-01-13 11:58:00,50.5,50.5,30.08,North,360,0.0,0.0,100,0.00,,,0.00,VWS V14.01,2013-01-13 16:58:00,
2013-01-13 12:07:00,50.6,50.6,30.08,North,360,0.0,0.0,100,0.00,,,0.00,VWS V14.01,2013-01-13 17:07:00,
2013-01-13 12:13:00,51.1,51.1,30.08,North,360,0.0,0.0,100,0.00,,,0.00,VWS V14.01,2013-01-13 17:13:00,
2013-01-13 12:18:00,51.3,51.3,30.08,North,360,0.0,0.0,100,0.00,,,0.00,VWS V14.01,2013-01-13 17:18:00,
2013-01-13 12:23:00,51.5,51.5,30.07,North,360,0.0,0.0,100,0.00,,,0.00,VWS V14.01,2013-01-13 17:23:00,
2013-01-13 12:28:00,51.8,51.8,30.07,North,360,0.0,0.0,100,0.00,,,0.00,VWS V14.01,2013-01-13 17:28:00,
2013-01-13 12:33:00,52.0,52.0,30.07,North,360,0.0,0.0,100,0.00,,,0.00,VWS V14.01,2013-01-13 17:33:00,
2013-01-13 12:38:00,52.2,52.2,30.07,North,360,0.0,0.0,100,0.00,,,0.00,VWS V14.01,2013-01-13 17:38:00,
2013-01-13 12:48:00,52.5,52.5,30.07,North,360,0.0,0.0,100,0.00,,,0.00,VWS V14.01,2013-01-13 17:48:00,
2013-01-13 12:53:00,52.6,52.3,30.07,North,360,0.0,0.0,99,0.00,,,0.00,VWS V14.01,2013-01-13 17:53:00,
2013-01-13 12:58:00,52.8,52.5,30.07,North,360,0.0,0.0,99,0.00,,,0.00,VWS V14.01,2013-01-13 17:58:00,
2013-01-13 13:07:00,52.9,52.6,30.06,North,360,0.0,0.0,99,0.00,,,0.00,VWS V14.01,2013-01-13 18:07:00,
2013-01-13 13:13:00,53.1,52.8,30.06,North,360,0.0,0.0,99,0.00,,,0.00,VWS V14.01,2013-01-13 18:13:00,
2013-01-13 13:23:00,53.3,53.0,30.06,North,360,0.0,0.0,99,0.00,,,0.00,VWS V14.01,2013-01-13 18:23:00,
2013-01-13 13:28:00,53.4,53.1,30.06,North,360,0.0,0.0,99,0.00,,,0.00,VWS V14.01,2013-01-13 18:28:00,
2013-01-13 13:33:00,53.4,53.1,30.06,North,360,0.0,0.0,99,0.00,,,0.00,VWS V14.01,2013-01-13 18:33:00,
2013-01-13 13:43:00,53.4,53.4,30.05,North,360,0.0,0.0,100,0.00,,,0.00,VWS V14.01,2013-01-13 18:43:00,
2013-01-13 13:48:00,53.4,53.4,30.06,North,360,0.0,0.0,100,0.00,,,0.00,VWS V14.01,2013-01-13 18:48:00,
2013-01-13 13:53:00,53.5,53.5,30.06,North,360,0.0,0.0,100,0.00,,,0.00,VWS V14.01,2013-01-13 18:53:00,
2013-01-13 13:58:00,53.6,53.6,30.05,North,360,0.0,0.0,100,0.00,,,0.00,VWS V14.01,2013-01-13 18:58:00,
2013-01-13 14:07:00,53.6,53.6,30.05,North,360,0.0,0.0,100,0.00,,,0.00,VWS V14.01,2013-01-13 19:07:00,
2013-01-13 14:13:00,53.6,53.6,30.05,North,360,0.0,0.0,100,0.00,,,0.00,VWS V14.01,2013-01-13 19:13:00,
2013-01-13 14:18:00,53.4,53.4,30.05,North,360,0.0,0.0,100,0.00,,,0.00,VWS V14.01,2013-01-13 19:18:00,
2013-01-13 14:23:00,53.4,53.4,30.05,North,360,0.0,0.0,100,0.00,,,0.00,VWS V14.01,2013-01-13 19:23:00,
2013-01-13 14:28:00,53.5,53.5,30.06,North,360,0.0,0.0,100,0.00,,,0.00,VWS V14.01,2013-01-13 19:28:00,
2013-01-13 14:33:00,53.5,53.5,30.06,North,360,0.0,0.0,100,0.00,,,0.00,VWS V14.01,2013-01-13 19:33:00,
2013-01-13 14:38:00,53.6,53.6,30.06,North,360,0.0,0.0,100,0.00,,,0.00,VWS V14.01,2013-01-13 19:38:00,
2013-01-13 14:43:00,53.6,53.6,30.06,North,360,0.0,0.0,100,0.00,,,0.00,VWS V14.01,2013-01-13 19:43:00,
2013-01-13 14:48:00,53.6,53.6,30.05,North,360,0.0,0.0,100,0.00,,,0.00,VWS V14.01,2013-01-13 19:48:00,
2013-01-13 14:53:00,53.5,53.5,30.05,North,360,0.0,0.0,100,0.00,,,0.00,VWS V14.01,2013-01-13 19:53:00,
2013-01-13 14:58:00,53.5,53.5,30.05,North,360,0.0,0.0,100,0.00,,,0.00,VWS V14.01,2013-01-13 19:58:00,
2013-01-13 15:07:00,53.6,53.6,30.05,North,360,0.0,0.0,100,0.00,,,0.00,VWS V14.01,2013-01-13 20:07:00,
2013-01-13 15:13:00,53.4,53.4,30.05,North,360,0.0,0.0,100,0.00,,,0.00,VWS V14.01,2013-01-13 20:13:00,
2013-01-13 15:18:00,53.4,53.4,30.06,North,360,0.0,0.0,100,0.00,,,0.00,VWS V14.01,2013-01-13 20:18:00,
2013-01-13 15:23:00,53.5,53.5,30.06,North,360,0.0,0.0,100,0.00,,,0.00,VWS V14.01,2013-01-13 20:23:00,
2013-01-13 15:28:00,53.5,53.5,30.06,North,360,0.0,0.0,100,0.00,,,0.00,VWS V14.01,2013-01-13 20:28:00,
2013-01-13 15:38:00,53.6,53.6,30.06,North,360,0.0,0.0,100,0.00,,,0.00,VWS V14.01,2013-01-13 20:38:00,
2013-01-13 15:43:00,53.7,53.7,30.06,North,360,0.0,0.0,100,0.00,,,0.00,VWS V14.01,2013-01-13 20:43:00,
2013-01-13 15:48:00,53.6,53.6,30.05,North,360,0.0,0.0,100,0.00,,,0.00,VWS V14.01,2013-01-13 20:48:00,
2013-01-13 15:53:00,53.5,53.5,30.06,North,360,0.0,0.0,100,0.00,,,0.00,VWS V14.01,2013-01-13 20:53:00,
2013-01-13 15:58:00,53.5,53.5,30.06,North,360,0.0,0.0,100,0.00,,,0.00,VWS V14.01,2013-01-13 20:58:00,
2013-01-13 16:07:00,53.6,53.6,30.05,North,360,0.0,0.0,100,0.00,,,0.00,VWS V14.01,2013-01-13 21:07:00,
2013-01-13 16:13:00,53.6,53.6,30.05,North,360,0.0,0.0,100,0.00,,,0.00,VWS V14.01,2013-01-13 21:13:00,
2013-01-13 16:18:00,53.6,53.6,30.05,North,360,0.0,0.0,100,0.00,,,0.00,VWS V14.01,2013-01-13 21:18:00,
2013-01-13 16:23:00,53.6,53.6,30.05,North,360,0.0,0.0,100,0.00,,,0.00,VWS V14.01,2013-01-13 21:23:00,
2013-01-13 16:28:00,53.5,53.5,30.05,North,360,0.0,0.0,100,0.00,,,0.00,VWS V14.01,2013-01-13 21:28:00,
2013-01-13 16:38:00,53.6,53.6,30.05,North,360,0.0,0.0,100,0.00,,,0.00,VWS V14.01,2013-01-13 21:38:00,
2013-01-13 16:43:00,53.6,53.6,30.05,North,360,0.0,0.0,100,0.00,,,0.00,VWS V14.01,2013-01-13 21:43:00,
2013-01-13 16:53:00,53.6,53.6,30.05,North,360,0.0,0.0,100,0.00,,,0.00,VWS V14.01,2013-01-13 21:53:00,
2013-01-13 16:58:00,53.6,53.6,30.05,North,360,0.0,0.0,100,0.00,,,0.00,VWS V14.01,2013-01-13 21:58:00,
2013-01-13 17:07:00,53.6,53.6,30.05,North,360,0.0,0.0,100,0.00,,,0.00,VWS V14.01,2013-01-13 22:07:00,
2013-01-13 17:13:00,53.6,53.6,30.06,North,360,0.0,0.0,100,0.00,,,0.00,VWS V14.01,2013-01-13 22:13:00,
2013-01-13 17:18:00,53.6,53.6,30.05,North,360,0.0,0.0,100,0.00,,,0.00,VWS V14.01,2013-01-13 22:18:00,
2013-01-13 17:23:00,53.6,53.6,30.06,North,360,0.0,0.0,100,0.00,,,0.00,VWS V14.01,2013-01-13 22:23:00,
2013-01-13 17:33:00,53.6,53.6,30.06,North,360,0.0,0.0,100,0.00,,,0.00,VWS V14.01,2013-01-13 22:33:00,
2013-01-13 17:38:00,53.7,53.7,30.06,North,360,0.0,0.0,100,0.00,,,0.00,VWS V14.01,2013-01-13 22:38:00,
2013-01-13 17:43:00,53.6,53.6,30.06,North,360,0.0,0.0,100,0.00,,,0.00,VWS V14.01,2013-01-13 22:43:00,
2013-01-13 17:53:00,52.9,52.9,30.05,North,360,0.0,0.0,100,0.00,,,0.00,VWS V14.01,2013-01-13 22:53:00,
2013-01-13 17:58:00,52.9,52.9,30.05,North,360,0.0,0.0,100,0.00,,,0.00,VWS V14.01,2013-01-13 22:58:00,
2013-01-13 18:07:00,53.0,53.0,30.06,North,360,0.0,0.0,100,0.00,,,0.00,VWS V14.01,2013-01-13 23:07:00,
2013-01-13 18:13:00,53.1,53.1,30.06,North,360,0.0,0.0,100,0.00,,,0.00,VWS V14.01,2013-01-13 23:13:00,
2013-01-13 18:18:00,53.1,53.1,30.06,North,360,0.0,0.0,100,0.00,,,0.00,VWS V14.01,2013-01-13 23:18:00,
2013-01-13 18:23:00,53.1,53.1,30.05,North,360,0.0,0.0,100,0.00,,,0.00,VWS V14.01,2013-01-13 23:23:00,
2013-01-13 18:28:00,53.0,53.0,30.05,North,360,0.0,0.0,100,0.00,,,0.00,VWS V14.01,2013-01-13 23:28:00,
2013-01-13 18:33:00,53.1,53.1,30.05,North,360,0.0,0.0,100,0.00,,,0.00,VWS V14.01,2013-01-13 23:33:00,
2013-01-13 18:38:00,53.0,53.0,30.05,North,360,0.0,0.0,100,0.00,,,0.00,VWS V14.01,2013-01-13 23:38:00,
2013-01-13 18:48:00,52.7,52.7,30.05,North,360,0.0,0.0,100,0.00,,,0.00,VWS V14.01,2013-01-13 23:48:00,
2013-01-13 18:58:00,52.0,52.0,30.04,North,360,0.0,0.0,100,0.00,,,0.00,VWS V14.01,2013-01-13 23:58:00,
2013-01-13 19:07:00,51.8,51.8,30.04,North,360,0.0,0.0,100,0.00,,,0.00,VWS V14.01,2013-01-14 00:07:00,
2013-01-13 19:13:00,52.2,52.2,30.04,North,360,0.0,0.0,100,0.00,,,0.00,VWS V14.01,2013-01-14 00:13:00,
2013-01-13 19:18:00,52.5,52.5,30.04,North,0,0.0,0.0,100,0.00,,,0.00,VWS V14.01,2013-01-14 00:18:00,
2013-01-13 19:28:00,52.7,52.7,30.03,North,360,0.0,0.0,100,0.00,,,0.00,VWS V14.01,2013-01-14 00:28:00,
2013-01-13 19:33:00,52.9,52.9,30.03,North,360,0.0,0.0,100,0.00,,,0.00,VWS V14.01,2013-01-14 00:33:00,
2013-01-13 19:38:00,52.8,52.8,30.03,North,360,0.0,0.0,100,0.00,,,0.00,VWS V14.01,2013-01-14 00:38:00,
2013-01-13 19:43:00,52.8,52.8,30.03,North,360,0.0,0.0,100,0.00,,,0.00,VWS V14.01,2013-01-14 00:43:00,
2013-01-13 19:48:00,52.4,52.4,30.03,North,360,0.0,0.0,100,0.00,,,0.00,VWS V14.01,2013-01-14 00:48:00,
2013-01-13 19:53:00,52.4,52.4,30.03,North,360,0.0,0.0,100,0.00,,,0.00,VWS V14.01,2013-01-14 00:53:00,
2013-01-13 19:58:00,52.7,52.7,30.03,North,360,0.0,0.0,100,0.00,,,0.00,VWS V14.01,2013-01-14 00:58:00,
2013-01-13 20:07:00,52.6,52.6,30.03,North,360,0.0,0.0,100,0.00,,,0.00,VWS V14.01,2013-01-14 01:07:00,
2013-01-13 20:13:00,52.6,52.6,30.02,North,360,0.0,0.0,100,0.00,,,0.00,VWS V14.01,2013-01-14 01:13:00,
2013-01-13 20:18:00,52.7,52.7,30.02,North,360,0.0,0.0,100,0.00,,,0.00,VWS V14.01,2013-01-14 01:18:00,
2013-01-13 20:23:00,52.7,52.7,30.02,North,360,0.0,0.0,100,0.00,,,0.00,VWS V14.01,2013-01-14 01:23:00,
2013-01-13 20:28:00,52.7,52.7,30.02,North,360,0.0,0.0,100,0.00,,,0.00,VWS V14.01,2013-01-14 01:28:00,
2013-01-13 20:33:00,52.7,52.7,30.02,North,360,0.0,0.0,100,0.00,,,0.00,VWS V14.01,2013-01-14 01:33:00,
2013-01-13 20:43:00,52.9,52.9,30.01,North,360,0.0,0.0,100,0.00,,,0.00,VWS V14.01,2013-01-14 01:43:00,
2013-01-13 20:48:00,52.9,52.9,30.01,North,360,0.0,0.0,100,0.00,,,0.00,VWS V14.01,2013-01-14 01:48:00,
2013-01-13 20:53:00,52.8,52.8,30.01,North,360,0.0,0.0,100,0.00,,,0.00,VWS V14.01,2013-01-14 01:53:00,
2013-01-13 20:58:00,52.6,52.6,30.01,North,360,0.0,0.0,100,0.00,,,0.00,VWS V14.01,2013-01-14 01:58:00,
2013-01-13 21:07:00,52.6,52.6,30.01,North,360,0.0,0.0,100,0.00,,,0.00,VWS V14.01,2013-01-14 02:07:00,
2013-01-13 21:13:00,52.5,52.5,30.01,North,360,0.0,0.0,100,0.00,,,0.00,VWS V14.01,2013-01-14 02:13:00,
2013-01-13 21:18:00,52.4,52.4,30.01,North,360,0.0,0.0,100,0.00,,,0.00,VWS V14.01,2013-01-14 02:18:00,
2013-01-13 21:23:00,52.1,52.1,30.01,North,360,0.0,0.0,100,0.00,,,0.00,VWS V14.01,2013-01-14 02:23:00,
2013-01-13 21:33:00,50.6,50.6,30.00,North,360,0.0,0.0,100,0.00,,,0.00,VWS V14.01,2013-01-14 02:33:00,
2013-01-13 21:38:00,50.4,50.4,30.01,North,360,0.0,0.0,100,0.00,,,0.00,VWS V14.01,2013-01-14 02:38:00,
2013-01-13 21:43:00,50.4,50.4,30.00,North,360,0.0,0.0,100,0.00,,,0.00,VWS V14.01,2013-01-14 02:43:00,
2013-01-13 21:48:00,50.5,50.5,30.00,North,360,0.0,0.0,100,0.00,,,0.00,VWS V14.01,2013-01-14 02:48:00,
2013-01-13 21:53:00,50.7,50.7,30.00,North,360,0.0,0.0,100,0.00,,,0.00,VWS V14.01,2013-01-14 02:53:00,
2013-01-13 21:58:00,50.8,50.8,30.00,North,360,0.0,0.0,100,0.00,,,0.00,VWS V14.01,2013-01-14 02:58:00,
2013-01-13 22:07:00,50.9,50.9,30.00,North,360,0.0,0.0,100,0.00,,,0.00,VWS V14.01,2013-01-14 03:07:00,
2013-01-13 22:13:00,51.5,51.5,30.00,North,360,0.0,0.0,100,0.00,,,0.00,VWS V14.01,2013-01-14 03:13:00,
2013-01-13 22:23:00,51.6,51.6,30.01,North,360,0.0,0.0,100,0.00,,,0.00,VWS V14.01,2013-01-14 03:23:00,
2013-01-13 22:28:00,51.6,51.6,30.01,North,360,0.0,0.0,100,0.00,,,0.00,VWS V14.01,2013-01-14 03:28:00,
2013-01-13 22:33:00,51.3,51.3,30.00,North,360,0.0,0.0,100,0.00,,,0.00,VWS V14.01,2013-01-14 03:33:00,
2013-01-13 22:38:00,50.8,50.8,30.00,North,360,0.0,0.0,100,0.00,,,0.00,VWS V14.01,2013-01-14 03:38:00,
2013-01-13 22:43:00,50.3,50.3,30.00,North,360,0.0,0.0,100,0.00,,,0.00,VWS V14.01,2013-01-14 03:43:00,
2013-01-13 22:48:00,50.3,50.3,30.00,North,360,0.0,0.0,100,0.00,,,0.00,VWS V14.01,2013-01-14 03:48:00,
2013-01-13 22:53:00,50.3,50.3,30.00,North,360,0.0,0.0,100,0.00,,,0.00,VWS V14.01,2013-01-14 03:53:00,
2013-01-13 22:58:00,50.3,50.3,30.00,North,360,0.0,0.0,100,0.00,,,0.00,VWS V14.01,2013-01-14 03:58:00,
2013-01-13 23:07:00,50.7,50.7,30.00,North,360,0.0,0.0,100,0.00,,,0.00,VWS V14.01,2013-01-14 04:07:00,
2013-01-13 23:13:00,51.1,51.1,30.00,North,360,0.0,0.0,100,0.00,,,0.00,VWS V14.01,2013-01-14 04:13:00,
2013-01-13 23:18:00,51.1,51.1,30.00,North,360,0.0,0.0,100,0.00,,,0.00,VWS V14.01,2013-01-14 04:18:00,
2013-01-13 23:28:00,50.3,50.3,30.00,North,360,0.0,0.0,100,0.00,,,0.00,VWS V14.01,2013-01-14 04:28:00,
2013-01-13 23:33:00,50.3,50.3,30.00,North,360,0.0,0.0,100,0.00,,,0.00,VWS V14.01,2013-01-14 04:33:00,
2013-01-13 23:38:00,50.2,50.2,30.00,North,360,0.0,0.0,100,0.00,,,0.00,VWS V14.01,2013-01-14 04:38:00,
2013-01-13 23:48:00,50.7,50.7,30.00,North,360,0.0,0.0,100,0.00,,,0.00,VWS V14.01,2013-01-14 04:48:00,
2013-01-13 23:53:00,50.9,50.9,30.00,North,360,0.0,0.0,100,0.00,,,0.00,VWS V14.01,2013-01-14 04:53:00,
2013-01-13 23:58:00,51.2,51.2,30.00,North,360,0.0,0.0,100,0.00,,,0.00,VWS V14.01,2013-01-14 04:58:00,